Time;durP1;ratioP1;P1;durP2;ratioP2;P2;SDS_P1;SDS_P2;PMS_P1;PMS_P2;Temp;Humidity;BMP_temperature;BMP_pressure;BME280_temperature;BME280_humidity;BME280_pressure;Samples;Min_cycle;Max_cycle;Signal;HPM_P1;HPM_P2
2021/05/10 00:00:21;;;;;;;5.32;2.30;;;13.80;99.90;;;12.63;72.66;100273.94;4934539;27;20109;-79
2021/05/10 00:02:43;;;;;;;3.75;2.47;;;13.80;99.90;;;12.61;73.15;100278.50;4933345;27;20044;-79
2021/05/10 00:05:15;;;;;;;3.92;1.98;;;13.70;99.90;;;12.41;74.37;100274.44;4933925;27;20569;-79
2021/05/10 00:07:39;;;;;;;6.75;2.40;;;13.50;99.90;;;12.28;74.50;100270.84;4933397;28;20086;-81
2021/05/10 00:10:04;;;;;;;5.47;2.30;;;13.50;99.90;;;12.31;74.32;100273.34;4926325;27;20051;-79
2021/05/10 00:12:27;;;;;;;5.20;2.20;;;13.50;99.90;;;12.34;74.75;100274.94;4932641;27;20044;-81
2021/05/10 00:14:57;;;;;;;3.60;2.38;;;13.60;99.90;;;12.55;73.49;100268.31;4932469;27;20474;-78
2021/05/10 00:17:22;;;;;;;5.30;2.42;;;13.90;99.90;;;12.73;73.11;100274.25;4916050;27;20875;-78
2021/05/10 00:19:49;;;;;;;2.90;2.00;;;13.90;99.90;;;12.86;72.97;100272.53;4931632;27;20091;-79
2021/05/10 00:22:12;;;;;;;6.88;2.50;;;13.10;99.90;;;12.79;73.06;100268.56;4932414;27;20047;-80
2021/05/10 00:24:35;;;;;;;4.82;2.33;;;13.90;99.90;;;12.73;73.39;100264.50;4930131;27;20415;-78
2021/05/10 00:26:58;;;;;;;5.63;2.28;;;13.80;99.90;;;12.67;74.19;100264.06;4931802;27;20059;-79
2021/05/10 00:29:22;;;;;;;4.05;2.58;;;13.70;99.90;;;12.45;74.53;100259.28;4932937;27;21784;-79
2021/05/10 00:31:47;;;;;;;3.65;2.00;;;13.50;99.90;;;12.28;75.28;100260.28;4932881;27;20040;-80
2021/05/10 00:34:10;;;;;;;6.27;2.60;;;13.40;99.90;;;12.23;75.70;100262.38;4932472;27;20123;-78
2021/05/10 00:36:33;;;;;;;4.43;2.30;;;13.40;99.90;;;12.18;76.29;100259.16;4925471;27;20044;-79
2021/05/10 00:39:00;;;;;;;6.97;2.05;;;13.30;99.90;;;12.09;76.17;100256.16;4959967;27;20433;-79
2021/05/10 00:41:22;;;;;;;5.63;2.45;;;13.30;99.90;;;12.10;76.03;100265.75;4930245;28;20062;-79
2021/05/10 00:43:56;;;;;;;5.05;2.45;;;13.20;99.90;;;11.89;77.36;100267.88;4922659;27;20043;-78
2021/05/10 00:46:19;;;;;;;3.63;2.70;;;12.90;99.90;;;11.60;78.47;100271.38;4932301;27;20048;-79
2021/05/10 00:48:42;;;;;;;4.47;2.40;;;13.00;99.90;;;11.77;77.57;100273.00;4931237;27;20052;-78
2021/05/10 00:51:05;;;;;;;3.78;2.30;;;12.80;99.90;;;11.67;78.43;100273.53;4926629;27;20043;-79
2021/05/10 00:53:28;;;;;;;3.85;2.08;;;12.90;99.90;;;11.88;77.74;100274.09;4929881;27;20395;-80
2021/05/10 00:55:58;;;;;;;5.38;2.53;;;13.20;99.90;;;12.06;76.46;100264.25;4931337;27;20051;-80
2021/05/10 00:58:21;;;;;;;5.40;2.63;;;13.20;99.90;;;12.06;77.23;100266.88;4930589;28;20040;-80
2021/05/10 01:00:45;;;;;;;4.35;2.47;;;13.30;99.90;;;12.09;77.03;100269.34;4932283;27;20052;-79
2021/05/10 01:03:13;;;;;;;4.00;2.53;;;13.40;99.90;;;12.24;75.93;100264.06;4932221;27;20051;-80
2021/05/10 01:05:43;;;;;;;5.10;2.20;;;13.40;99.90;;;12.26;75.99;100267.47;4932152;27;20052;-79
2021/05/10 01:08:07;;;;;;;6.40;2.55;;;13.40;99.90;;;12.30;76.29;100274.25;4930623;27;20500;-81
2021/05/10 01:10:30;;;;;;;5.97;2.55;;;13.50;99.90;;;12.24;76.41;100266.69;4931397;27;20407;-81
2021/05/10 01:12:53;;;;;;;3.58;2.28;;;13.30;99.90;;;12.18;76.88;100269.72;4926845;27;20040;-80
2021/05/10 01:15:19;;;;;;;5.90;2.47;;;13.20;99.90;;;11.93;77.85;100268.56;4931406;27;20123;-78
2021/05/10 01:17:42;;;;;;;5.55;2.92;;;13.10;99.90;;;11.85;77.77;100268.13;4930164;27;20082;-79
2021/05/10 01:20:10;;;;;;;3.53;2.35;;;13.00;99.90;;;11.86;78.27;100275.13;4931837;27;20052;-79
2021/05/10 01:22:50;;;;;;;6.85;2.85;;;12.90;99.90;;;11.65;79.35;100267.50;4931722;27;20077;-83
2021/05/10 01:25:23;;;;;;;5.32;2.88;;;12.90;99.90;;;11.84;78.92;100274.34;4927107;27;20050;-79
2021/05/10 01:27:48;;;;;;;6.65;2.72;;;13.20;99.90;;;12.06;77.80;100271.31;4930416;27;20398;-78
2021/05/10 01:30:21;;;;;;;6.03;2.60;;;13.30;99.90;;;12.32;76.10;100265.28;4931147;27;20044;-78
2021/05/10 01:32:44;;;;;;;6.07;2.60;;;13.50;99.90;;;12.38;76.17;100269.34;4930340;27;20047;-82
2021/05/10 01:35:15;;;;;;;3.47;2.45;;;13.50;99.90;;;12.28;76.64;100271.69;4930320;27;20380;-78
2021/05/10 01:37:37;;;;;;;8.27;2.75;;;13.30;99.90;;;12.03;77.76;100272.34;4924487;27;20067;-79
2021/05/10 01:40:06;;;;;;;3.92;2.47;;;13.10;99.90;;;11.83;78.96;100270.00;4931311;27;20201;-80
2021/05/10 01:42:29;;;;;;;8.20;3.45;;;12.90;99.90;;;11.58;80.38;100268.81;4931859;27;20430;-80
2021/05/10 01:44:55;;;;;;;3.70;2.70;;;12.70;99.90;;;11.38;80.81;100263.81;4931834;27;20066;-81
2021/05/10 01:47:27;;;;;;;5.88;2.70;;;12.50;99.90;;;11.20;82.11;100271.00;4935786;28;20085;-78
2021/05/10 01:49:51;;;;;;;5.18;2.65;;;12.40;99.90;;;11.18;82.10;100271.06;4938317;28;20547;-77
2021/05/10 01:52:18;;;;;;;8.25;2.85;;;12.20;99.90;;;10.87;83.68;100275.41;4942743;28;20097;-79
2021/05/10 01:54:54;;;;;;;7.47;2.67;;;12.20;99.90;;;10.97;83.24;100275.78;4935247;28;20082;-78
2021/05/10 01:57:19;;;;;;;5.80;2.58;;;12.20;99.90;;;11.04;82.75;100276.28;4934790;28;20043;-78
2021/05/10 01:59:45;;;;;;;6.13;2.90;;;12.40;99.90;;;11.29;82.22;100276.63;4940082;27;20047;-78
2021/05/10 02:02:07;;;;;;;3.35;2.75;;;12.60;99.90;;;11.46;81.31;100277.41;4941497;28;20047;-78
2021/05/10 02:04:50;;;;;;;5.80;2.65;;;12.70;99.90;;;11.50;80.99;100279.78;4941724;28;20056;-78
2021/05/10 02:07:16;;;;;;;7.05;2.88;;;12.90;99.90;;;11.76;80.07;100271.31;4926372;27;20044;-82
2021/05/10 02:09:40;;;;;;;9.95;2.67;;;13.00;99.90;;;11.91;79.25;100267.78;4924825;28;20440;-80
2021/05/10 02:12:03;;;;;;;5.28;2.72;;;13.10;99.90;;;11.96;79.12;100278.91;4936788;28;20107;-79
2021/05/10 02:14:27;;;;;;;4.10;2.65;;;13.10;99.90;;;11.89;79.11;100270.50;4940485;28;20051;-79
2021/05/10 02:17:03;;;;;;;5.22;2.88;;;13.00;99.90;;;11.81;79.17;100279.78;4929850;28;20097;-81
2021/05/10 02:19:29;;;;;;;8.27;3.08;;;12.90;99.90;;;11.72;80.10;100273.28;4930894;27;20056;-82
2021/05/10 02:21:52;;;;;;;;;;;12.80;99.90;;;11.57;80.65;100274.16;4927107;28;20044;-81
2021/05/10 02:24:17;;;;;;;6.85;3.40;;;12.80;99.90;;;11.61;80.23;100279.16;4922709;27;19920;-79
2021/05/10 02:26:40;;;;;;;6.82;3.00;;;12.80;99.90;;;11.74;80.08;100275.81;4936544;28;20101;-80
2021/05/10 02:29:06;;;;;;;10.32;3.40;;;12.90;99.90;;;11.73;79.74;100279.38;4933644;28;20406;-79
2021/05/10 02:31:33;;;;;;;6.45;2.60;;;12.80;99.90;;;11.65;80.37;100271.94;4936733;28;20071;-79
2021/05/10 02:33:59;;;;;;;4.68;2.80;;;12.70;99.90;;;11.55;80.54;100276.88;4946120;28;20051;-79
2021/05/10 02:36:22;;;;;;;7.30;2.70;;;12.70;99.90;;;11.48;81.34;100275.53;4932439;28;20088;-79
2021/05/10 02:38:49;;;;;;;4.57;3.03;;;12.60;99.90;;;11.42;81.69;100278.53;4937152;28;20050;-79
2021/05/10 02:41:13;;;;;;;3.55;2.90;;;12.60;99.90;;;11.36;81.89;100278.88;4934743;28;20471;-80
2021/05/10 02:43:35;;;;;;;6.60;3.17;;;12.60;99.90;;;11.39;81.91;100281.34;4941446;28;20536;-78
2021/05/10 02:46:00;;;;;;;7.60;2.85;;;12.60;99.90;;;11.40;81.48;100278.63;4931474;28;20051;-79
2021/05/10 02:48:24;;;;;;;3.40;2.60;;;12.50;99.90;;;11.31;82.21;100275.66;4939805;28;20093;-79
2021/05/10 02:50:48;;;;;;;7.53;2.75;;;12.50;99.90;;;11.34;81.49;100283.38;4943068;28;20044;-81
2021/05/10 02:53:11;;;;;;;4.32;2.97;;;12.60;99.90;;;11.41;81.45;100285.59;4942491;28;20050;-79
2021/05/10 02:55:34;;;;;;;3.10;2.45;;;12.60;99.90;;;11.40;81.58;100288.31;4938202;28;20480;-80
2021/05/10 02:58:01;;;;;;;5.60;3.03;;;;;;;11.41;81.46;100292.66;4943329;27;20048;-79
2021/05/10 03:00:27;;;;;;;4.78;2.50;;;12.60;99.90;;;11.38;81.07;100290.19;4935346;28;20047;-79
2021/05/10 03:02:51;;;;;;;5.43;2.85;;;12.50;99.90;;;11.29;82.08;100287.16;4939124;27;20407;-80
2021/05/10 03:05:18;;;;;;;5.82;3.05;;;12.50;99.90;;;11.29;81.61;100287.16;4934874;27;20050;-79
2021/05/10 03:07:42;;;;;;;8.13;2.88;;;12.40;99.90;;;11.16;82.22;100282.66;4941768;27;20560;-79
2021/05/10 03:10:10;;;;;;;5.32;2.75;;;12.50;99.90;;;11.39;81.58;100278.72;4944718;27;20488;-78
2021/05/10 03:12:33;;;;;;;4.43;2.60;;;12.50;99.90;;;11.20;81.97;100278.91;4930534;27;20055;-79
2021/05/10 03:14:56;;;;;;;3.33;2.75;;;12.50;99.90;;;11.45;81.11;100278.38;4934178;27;20044;-78
2021/05/10 03:17:19;;;;;;;3.80;2.70;;;12.70;99.90;;;11.54;80.86;100280.47;4931955;27;20051;-80
2021/05/10 03:19:41;;;;;;;4.47;2.40;;;12.90;99.90;;;11.72;80.20;100277.69;4926688;27;20040;-81
2021/05/10 03:22:05;;;;;;;3.53;2.60;;;12.90;99.90;;;11.73;80.16;100274.97;4934774;27;20094;-80
2021/05/10 03:24:28;;;;;;;6.00;2.85;;;13.00;99.90;;;11.75;79.88;100273.09;4934105;27;20040;-81
2021/05/10 03:26:52;;;;;;;4.43;2.85;;;12.90;99.90;;;11.79;79.83;100276.41;4934410;27;20058;-80
2021/05/10 03:29:15;;;;;;;4.45;2.58;;;12.90;99.90;;;11.67;79.89;100270.06;4934245;27;20040;-80
2021/05/10 03:31:43;;;;;;;6.13;2.85;;;12.70;99.90;;;11.53;80.63;100278.75;4933299;27;20479;-81
2021/05/10 03:34:06;;;;;;;3.95;2.70;;;;;;;11.59;80.47;100281.03;4933873;28;20036;-79
2021/05/10 03:36:30;;;;;;;6.75;2.63;;;12.80;99.90;;;11.73;79.92;100279.38;4932961;27;20419;-79
2021/05/10 03:38:55;;;;;;;7.78;2.95;;;12.90;99.90;;;11.72;80.66;100288.25;4933201;27;20160;-78
2021/05/10 03:41:18;;;;;;;6.22;2.42;;;12.80;99.90;;;11.76;80.00;100287.97;4934087;27;20063;-78
2021/05/10 03:43:46;;;;;;;4.47;2.58;;;12.90;99.90;;;11.75;80.16;100277.50;4935007;27;20056;-79
2021/05/10 03:46:18;;;;;;;8.38;2.92;;;12.90;99.90;;;11.86;79.56;100280.38;4931387;27;20039;-79
2021/05/10 03:48:44;;;;;;;4.80;2.75;;;13.00;99.90;;;11.82;79.98;100282.34;4932536;27;20040;-82
2021/05/10 03:51:08;;;;;;;3.63;2.58;;;;;;;11.95;79.09;100290.41;4919938;27;20048;-78
2021/05/10 03:53:36;;;;;;;4.57;2.70;;;13.10;99.90;;;12.03;78.63;100287.31;4932939;27;20449;-78
2021/05/10 03:56:02;;;;;;;4.40;2.53;;;13.20;99.90;;;12.05;79.06;100281.03;4931532;27;20039;-79
2021/05/10 03:58:25;;;;;;;4.95;2.95;;;13.10;99.90;;;11.94;79.48;100278.16;4933005;27;20055;-78
2021/05/10 04:00:54;;;;;;;6.05;2.55;;;13.20;99.90;;;12.00;79.02;100280.44;4926402;27;20051;-80
2021/05/10 04:03:17;;;;;;;4.53;2.63;;;13.30;99.90;;;12.18;78.76;100278.50;4925802;28;20449;-79
2021/05/10 04:11:10;;;;;;;4.70;2.33;;;14.80;99.90;;;13.81;71.87;100285.81;4931038;27;20487;-81
2021/05/10 04:13:36;;;;;;;3.28;2.20;;;15.40;99.90;;;14.43;68.67;100277.19;4933621;27;20036;-80
2021/05/10 04:15:59;;;;;;;4.47;2.58;;;15.70;99.90;;;14.73;68.41;100282.16;4932484;27;20712;-79
2021/05/10 04:18:22;;;;;;;3.70;2.42;;;15.90;99.90;;;14.93;67.19;100273.63;4953739;27;20052;-80
2021/05/10 04:20:45;;;;;;;7.45;2.30;;;16.10;99.90;;;15.34;65.62;100277.72;4930782;27;20048;-80
2021/05/10 04:23:09;;;;;;;3.33;2.13;;;16.30;99.90;;;15.54;64.79;100278.88;4929192;27;20036;-80
2021/05/10 04:25:34;;;;;;;2.78;1.95;;;16.40;99.90;;;15.46;65.48;100280.41;4932707;27;20043;-78
2021/05/10 04:28:09;;;;;;;6.43;3.10;;;16.10;99.90;;;15.09;66.63;100283.94;4932554;27;20514;-79
2021/05/10 04:30:34;;;;;;;4.80;1.95;;;15.90;99.90;;;15.00;67.18;100283.78;4929504;27;20048;-79
2021/05/10 04:33:01;;;;;;;4.10;2.08;;;16.10;99.90;;;15.32;66.14;100276.97;4932967;27;20040;-80
2021/05/10 04:35:24;;;;;;;3.40;2.00;;;16.70;99.90;;;15.85;63.75;100273.09;4933332;27;20081;-80
2021/05/10 04:37:46;;;;;;;4.18;2.00;;;17.10;99.90;;;16.41;62.18;100267.88;4931379;27;20051;-79
2021/05/10 04:40:13;;;;;;;2.10;1.70;;;17.90;99.90;;;17.10;59.44;100274.88;4933053;28;20383;-80
2021/05/10 04:42:52;;;;;;;3.58;1.92;;;18.30;99.90;;;17.55;57.33;100274.72;4932622;27;20044;-80
2021/05/10 04:45:18;;;;;;;3.10;1.92;;;17.80;99.90;;;16.59;60.52;100282.41;4927335;27;20044;-79
2021/05/10 04:47:42;;;;;;;6.40;1.98;;;17.30;99.90;;;16.42;61.73;100287.34;4928122;27;20044;-80
2021/05/10 04:50:19;;;;;;;3.00;1.88;;;17.30;99.90;;;16.57;61.45;100284.31;4930655;27;20110;-79
2021/05/10 04:52:42;;;;;;;2.40;1.52;;;17.30;99.90;;;16.45;61.11;100293.25;4932263;27;20040;-83
2021/05/10 04:55:14;;;;;;;5.13;2.13;;;17.20;99.90;;;16.48;62.20;100289.50;4931854;27;20114;-81
2021/05/10 04:57:37;;;;;;;7.22;1.90;;;17.70;99.90;;;17.26;60.21;100280.63;4932327;27;20406;-81
2021/05/10 05:00:00;;;;;;;2.67;1.75;;;18.40;99.90;;;17.91;56.75;100280.66;4931605;27;20044;-79
2021/05/10 05:02:27;;;;;;;4.03;1.80;;;19.10;99.90;;;18.74;55.28;100276.16;4933242;27;20052;-80
2021/05/10 05:04:50;;;;;;;4.65;1.67;;;19.90;99.90;;;19.58;51.88;100271.28;4932067;27;20078;-80
2021/05/10 05:07:14;;;;;;;2.72;1.60;;;20.20;99.90;;;19.75;51.32;100272.41;4932061;27;20043;-80
2021/05/10 05:09:52;;;;;;;3.63;1.63;;;20.60;99.90;;;20.42;50.11;100272.44;4929624;27;20044;-79
2021/05/10 05:12:15;;;;;;;2.15;1.60;;;21.00;99.90;;;20.49;49.64;100278.88;4930464;27;20097;-80
2021/05/10 05:14:40;;;;;;;10.73;2.00;;;21.00;99.90;;;20.84;48.74;100277.31;4930301;27;20048;-79
2021/05/10 05:17:04;;;;;;;2.03;1.52;;;21.50;99.90;;;21.80;46.16;100288.38;4929817;27;20047;-80
2021/05/10 05:19:27;;;;;;;6.70;1.45;;;21.90;99.90;;;21.60;46.34;100284.22;4930184;27;20044;-80
2021/05/10 05:21:54;;;;;;;4.95;1.60;;;21.60;99.90;;;21.61;46.19;100280.53;4931577;27;20419;-80
2021/05/10 05:24:23;;;;;;;3.22;1.60;;;20.80;99.90;;;21.10;46.91;100286.34;4930993;27;20044;-81
2021/05/10 05:26:48;;;;;;;2.00;1.48;;;21.30;99.90;;;21.07;47.51;100281.28;4931105;27;20472;-86
2021/05/10 05:29:11;;;;;;;6.70;1.85;;;21.30;99.90;;;21.78;46.45;100278.81;4927769;27;20403;-82
2021/05/10 05:31:34;;;;;;;6.47;1.70;;;21.70;99.90;;;21.83;46.07;100274.66;4932392;27;20044;-79
2021/05/10 05:34:13;;;;;;;2.20;1.63;;;22.20;99.90;;;22.40;44.64;100276.09;4954952;27;20055;-80
2021/05/10 05:36:39;;;;;;;4.32;1.73;;;22.40;99.90;;;22.69;44.20;100265.84;4928338;27;20089;-85
2021/05/10 05:39:17;;;;;;;1.67;1.20;;;22.80;99.90;;;22.41;43.76;100283.97;4929871;27;20055;-81
2021/05/10 05:41:43;;;;;;;7.75;1.40;;;22.20;99.90;;;22.37;43.87;100276.41;4928413;27;20414;-81
2021/05/10 05:44:07;;;;;;;3.55;1.63;;;22.10;99.90;;;22.65;43.65;100285.94;4930701;27;20487;-82
2021/05/10 05:46:38;;;;;;;3.97;1.48;;;21.70;99.90;;;21.91;45.59;100288.13;4930606;27;20043;-81
2021/05/10 05:49:06;;;;;;;5.28;1.40;;;21.40;99.90;;;21.12;46.60;100293.38;4929673;27;20502;-81
2021/05/10 05:51:31;;;;;;;1.63;1.40;;;20.90;99.90;;;21.04;47.11;100294.16;4922904;28;20131;-79
2021/05/10 05:54:27;;;;;;;4.53;1.40;;;20.90;99.90;;;21.10;47.57;100291.72;4931240;27;20051;-79
2021/05/10 05:56:54;;;;;;;6.97;1.57;;;20.90;99.90;;;21.09;48.03;100298.03;4930444;28;20446;-81
2021/05/10 05:59:19;;;;;;;3.78;1.38;;;20.80;99.90;;;20.95;47.50;100292.34;4929697;27;20043;-79
2021/05/10 06:01:48;;;;;;;4.03;1.75;;;20.50;99.90;;;20.40;50.30;100304.66;4929799;27;20048;-80
2021/05/10 06:04:12;;;;;;;2.67;1.48;;;20.60;99.90;;;20.75;49.39;100310.34;4931843;27;20055;-79
2021/05/10 06:06:37;;;;;;;5.78;1.45;;;20.90;99.90;;;21.05;47.43;100306.53;4929144;27;20056;-82
2021/05/10 06:09:04;;;;;;;2.38;1.52;;;20.80;99.90;;;21.14;46.74;100304.78;4933108;27;20040;-80
2021/05/10 06:11:28;;;;;;;3.03;1.38;;;;;;;20.73;47.94;100304.28;4930469;27;20044;-82
2021/05/10 06:13:53;;;;;;;3.53;1.20;;;20.60;99.90;;;20.75;48.50;100307.66;4931562;28;20097;-80
2021/05/10 06:16:27;;;;;;;4.70;1.50;;;20.70;99.90;;;20.79;48.77;100314.41;4941131;27;20499;-79
2021/05/10 06:18:52;;;;;;;2.67;1.27;;;21.10;99.90;;;21.24;47.60;100329.66;4934767;27;20056;-80
2021/05/10 06:21:15;;;;;;;4.82;1.27;;;21.30;99.90;;;21.78;46.06;100319.84;4928906;27;20127;-79
2021/05/10 06:23:41;;;;;;;2.33;1.38;;;21.40;99.90;;;21.46;44.63;100310.50;4923228;27;20063;-80
2021/05/10 06:26:07;;;;;;;3.00;1.00;;;21.20;99.90;;;20.96;46.65;100312.78;4927175;27;20048;-80
2021/05/10 06:28:33;;;;;;;3.45;1.15;;;20.60;99.90;;;20.82;48.83;100309.59;4931017;27;20055;-80
2021/05/10 06:30:55;;;;;;;;;;;20.70;99.90;;;21.69;45.72;100312.75;4933662;27;20063;-80
2021/05/10 06:33:18;;;;;;;2.25;1.30;;;21.60;99.90;;;22.23;42.29;100305.50;4933577;27;19951;-81
2021/05/10 06:35:50;;;;;;;1.95;1.30;;;22.60;99.90;;;23.22;39.94;100305.97;4929094;27;20509;-82
2021/05/10 06:38:13;;;;;;;2.88;1.10;;;;;;;23.36;40.18;100317.94;4933014;27;20040;-77
2021/05/10 06:40:37;;;;;;;2.13;1.33;;;23.50;99.90;;;24.29;38.82;100315.81;4933401;27;20460;-80
2021/05/10 06:43:00;;;;;;;1.75;1.10;;;24.40;99.60;;;25.34;37.50;100325.59;4935212;27;20059;-80
2021/05/10 06:45:25;;;;;;;8.43;1.42;;;24.00;99.20;;;25.54;35.43;100347.53;4931574;27;20484;-80
2021/05/10 06:47:50;;;;;;;2.25;1.30;;;23.60;98.90;;;25.94;34.57;100332.06;4931834;27;20059;-79
2021/05/10 06:50:15;;;;;;;3.03;1.30;;;24.60;96.50;;;25.88;33.63;100328.28;4935226;27;20040;-83
2021/05/10 06:52:41;;;;;;;2.70;1.30;;;24.50;97.70;;;26.26;33.69;100327.41;4934530;27;20044;-80
2021/05/10 06:55:09;;;;;;;;;;;24.60;95.80;;;25.80;33.43;100341.78;4933993;27;20040;-81
2021/05/10 06:57:32;;;;;;;2.10;1.20;;;25.60;95.80;;;27.49;31.77;100337.63;4933498;27;19919;-82
2021/05/10 07:00:08;;;;;;;2.05;1.15;;;25.20;94.60;;;26.33;33.21;100347.28;4934683;27;20040;-79
2021/05/10 07:02:32;;;;;;;2.03;1.35;;;;;;;27.01;32.03;100350.75;4931961;27;20047;-82
2021/05/10 07:04:55;;;;;;;3.47;1.17;;;25.70;94.10;;;27.01;31.58;100350.75;4933155;27;20448;-81
2021/05/10 07:07:18;;;;;;;2.70;1.33;;;24.90;95.20;;;26.22;33.78;100345.84;4934777;27;20133;-83
2021/05/10 07:09:42;;;;;;;2.42;1.52;;;24.80;95.10;;;26.28;32.98;100349.66;4929827;27;20052;-82
2021/05/10 07:12:05;;;;;;;2.30;1.30;;;25.00;95.60;;;26.48;34.15;100350.81;4930270;27;20063;-82
2021/05/10 07:14:29;;;;;;;1.40;1.15;;;25.20;95.10;;;26.48;34.36;100348.13;4931598;27;20406;-81
2021/05/10 07:16:52;;;;;;;5.95;1.45;;;24.80;95.30;;;26.21;33.69;100354.13;4921315;27;20091;-81
2021/05/10 07:19:20;;;;;;;2.75;1.33;;;24.30;95.50;;;25.15;36.03;100348.38;4958561;27;20123;-82
2021/05/10 07:21:43;;;;;;;3.58;1.10;;;22.90;97.10;;;23.32;38.83;100347.81;4931076;27;20036;-80
2021/05/10 07:24:06;;;;;;;2.15;1.30;;;22.80;97.90;;;23.79;39.47;100340.22;4929028;27;20070;-78
2021/05/10 07:26:31;;;;;;;2.65;1.40;;;23.20;97.90;;;24.06;38.51;100330.94;4934109;27;20048;-81
2021/05/10 07:28:54;;;;;;;3.55;1.33;;;;;;;24.47;38.77;100330.91;4933889;27;20043;-79
2021/05/10 07:31:18;;;;;;;2.65;1.20;;;23.40;97.50;;;24.54;36.44;100332.78;4933012;27;20494;-78
2021/05/10 07:33:43;;;;;;;1.63;1.10;;;23.40;98.30;;;25.03;38.05;100331.75;4929766;27;20044;-81
2021/05/10 07:36:06;;;;;;;2.30;1.10;;;24.10;96.90;;;25.60;35.74;100322.56;4934186;27;20036;-81
2021/05/10 07:38:29;;;;;;;2.10;1.38;;;23.80;96.10;;;25.20;35.65;100329.84;4932367;27;20047;-81
2021/05/10 07:40:54;;;;;;;2.92;1.42;;;23.40;96.80;;;24.68;37.31;100339.28;4934048;28;20394;-82
2021/05/10 07:43:20;;;;;;;2.83;1.30;;;22.90;97.40;;;23.93;38.77;100342.22;4933843;27;20059;-81
2021/05/10 07:45:48;;;;;;;3.40;1.27;;;23.10;98.30;;;24.85;37.96;100342.78;4927881;27;20048;-79
2021/05/10 07:48:13;;;;;;;2.03;1.35;;;24.00;97.60;;;25.87;36.88;100337.34;4930725;27;20064;-78
2021/05/10 07:50:41;;;;;;;6.63;1.33;;;24.00;96.60;;;25.28;36.21;100343.28;4934829;27;20048;-81
2021/05/10 07:53:06;;;;;;;5.55;1.42;;;24.00;96.60;;;25.46;35.79;100348.41;4932188;27;20503;-80
2021/05/10 07:55:42;;;;;;;3.95;1.25;;;24.50;95.80;;;26.53;34.78;100344.88;4933176;27;20494;-79
2021/05/10 07:58:05;;;;;;;;;;;25.60;95.70;;;28.07;32.52;100334.88;4933746;27;20040;-80
2021/05/10 08:00:33;;;;;;;2.53;1.40;;;26.30;93.90;;;28.70;30.92;100332.22;4933575;27;19920;-79
2021/05/10 08:03:06;;;;;;;3.60;1.60;;;26.50;94.00;;;28.95;31.31;100327.16;4930763;27;20449;-81
2021/05/10 08:05:29;;;;;;;3.17;1.30;;;26.30;93.80;;;28.29;31.45;100322.13;4932539;27;20108;-82
2021/05/10 08:07:51;;;;;;;2.70;1.10;;;26.80;93.60;;;28.91;30.58;100323.16;4930883;27;20047;-81
2021/05/10 08:10:16;;;;;;;2.10;1.40;;;26.60;92.50;;;28.29;31.63;100324.00;4934620;27;20040;-79
2021/05/10 08:12:39;;;;;;;4.03;1.45;;;26.70;93.10;;;28.73;31.13;100307.44;4927209;27;20044;-80
2021/05/10 08:15:12;;;;;;;4.32;1.40;;;26.10;92.70;;;27.35;31.98;100306.91;4955712;27;20039;-79
2021/05/10 08:17:35;;;;;;;2.38;1.48;;;25.40;94.30;;;26.62;35.73;100303.28;4929599;27;20040;-80
2021/05/10 08:19:59;;;;;;;4.00;1.30;;;25.40;95.30;;;26.57;35.27;100309.25;4924813;27;20494;-78
2021/05/10 08:22:21;;;;;;;1.40;1.27;;;24.90;95.00;;;26.19;34.76;100305.72;4933553;27;20105;-82
2021/05/10 08:24:46;;;;;;;5.13;1.38;;;25.10;94.90;;;26.90;33.93;100308.84;4933412;27;20097;-79
2021/05/10 08:27:10;;;;;;;2.55;1.27;;;;;;;26.84;33.36;100309.59;4927307;27;20044;-81
2021/05/10 08:29:33;;;;;;;4.15;1.40;;;;;;;26.72;35.53;100309.25;4932795;27;20043;-80
2021/05/10 08:31:57;;;;;;;1.83;1.20;;;25.40;95.00;;;26.07;35.47;100301.78;4930293;27;20066;-78
2021/05/10 08:34:25;;;;;;;4.65;1.15;;;25.20;95.70;;;25.98;36.79;100311.81;4934769;27;20039;-80
2021/05/10 08:36:50;;;;;;;4.20;1.85;;;24.80;94.30;;;25.35;35.37;100305.69;4929558;27;20037;-79
2021/05/10 08:39:15;;;;;;;2.40;1.33;;;24.00;95.60;;;24.61;37.98;100302.50;4924086;27;20398;-79
2021/05/10 08:41:39;;;;;;;2.05;1.38;;;24.40;95.60;;;24.99;37.75;100295.44;4955621;27;20054;-78
2021/05/10 08:44:08;;;;;;;2.60;1.35;;;24.70;96.30;;;24.87;39.65;100299.53;4929267;27;20043;-78
2021/05/10 08:46:31;;;;;;;3.05;1.50;;;24.50;95.90;;;24.33;40.65;100281.34;4932080;27;20410;-79
2021/05/10 08:48:56;;;;;;;2.65;1.10;;;24.60;95.70;;;24.59;39.19;100289.19;4931250;27;20090;-78
2021/05/10 08:51:20;;;;;;;2.45;1.20;;;24.40;95.60;;;24.14;39.67;100286.06;4931492;27;20044;-78
2021/05/10 08:53:54;;;;;;;1.83;1.10;;;24.10;97.40;;;24.09;41.79;100282.22;4930923;27;20047;-81
2021/05/10 08:56:17;;;;;;;4.22;1.30;;;24.10;97.00;;;23.80;41.63;100278.22;4932028;27;20040;-77
2021/05/10 08:58:41;;;;;;;3.35;1.58;;;24.20;98.20;;;24.14;42.85;100274.47;4927333;27;20044;-77
2021/05/10 09:01:07;;;;;;;3.42;1.10;;;24.50;96.90;;;24.14;42.53;100285.22;4932115;27;20497;-79
2021/05/10 09:03:39;;;;;;;3.33;1.67;;;24.60;96.70;;;24.17;42.14;100284.91;4929624;27;20707;-77
2021/05/10 09:06:02;;;;;;;2.55;1.35;;;25.00;96.80;;;24.70;41.98;100293.38;4931410;27;20526;-78
2021/05/10 09:08:40;;;;;;;4.20;1.33;;;24.80;96.70;;;24.28;44.21;100297.16;4930146;27;20044;-78
2021/05/10 09:11:17;;;;;;;6.63;1.42;;;24.40;97.60;;;23.77;44.44;100297.34;4931410;27;20479;-77
2021/05/10 09:13:42;;;;;;;3.70;1.70;;;24.40;97.30;;;23.79;43.28;100292.66;4924604;27;20426;-78
2021/05/10 09:16:08;;;;;;;1.92;1.33;;;24.50;97.30;;;24.07;43.11;100295.00;4930264;27;20051;-77
2021/05/10 09:18:32;;;;;;;4.20;1.40;;;24.70;98.50;;;24.31;44.77;100294.13;4927026;27;20501;-78
2021/05/10 09:21:09;;;;;;;4.60;1.10;;;25.00;97.20;;;24.56;40.71;100281.47;4931679;27;20105;-78
2021/05/10 09:23:41;;;;;;;5.43;1.40;;;24.80;96.50;;;24.27;41.53;100282.03;4923804;27;20042;-78
2021/05/10 09:26:06;;;;;;;2.83;1.30;;;24.80;97.30;;;24.42;41.22;100282.16;4928027;27;20384;-79
2021/05/10 09:28:41;;;;;;;2.23;1.40;;;24.70;97.10;;;24.32;41.63;100288.56;4928612;27;20056;-80
2021/05/10 09:31:09;;;;;;;1.80;1.27;;;24.70;97.50;;;24.42;41.10;100292.91;4928807;27;20539;-79
2021/05/10 09:33:34;;;;;;;2.80;1.25;;;24.60;96.90;;;24.26;41.81;100294.63;4928593;27;20048;-80
2021/05/10 09:36:00;;;;;;;3.10;1.23;;;24.40;97.70;;;23.69;43.86;100290.13;4929365;27;20407;-78
2021/05/10 09:38:27;;;;;;;6.05;1.10;;;24.60;98.30;;;24.45;41.98;100285.34;4925980;27;20048;-78
2021/05/10 09:40:57;;;;;;;5.22;1.30;;;24.70;99.40;;;24.41;43.56;100277.78;4930240;27;20558;-78
2021/05/10 09:43:23;;;;;;;1.08;0.95;;;25.00;98.10;;;24.79;41.42;100280.72;4924935;27;20052;-78
2021/05/10 09:46:01;;;;;;;5.25;1.58;;;25.00;96.70;;;24.89;40.84;100284.03;4929168;27;20089;-78
2021/05/10 09:48:31;;;;;;;4.63;1.48;;;25.20;96.60;;;24.86;40.71;100285.22;4917610;27;20131;-78
2021/05/10 09:51:14;;;;;;;2.67;1.10;;;25.10;95.60;;;24.80;40.17;100279.72;4891916;27;20483;-78
2021/05/10 09:54:12;;;;;;;2.97;1.58;;;25.10;96.00;;;24.99;40.70;100284.66;4903216;27;20085;-79
2021/05/10 09:56:40;;;;;;;1.77;1.23;;;25.20;95.80;;;24.90;40.31;100283.88;4911267;27;20126;-78
2021/05/10 09:59:08;;;;;;;2.92;1.40;;;25.00;96.40;;;24.62;40.92;100280.78;4891592;27;20131;-78
2021/05/10 10:01:44;;;;;;;7.68;1.67;;;25.20;96.30;;;24.97;39.50;100281.31;4895381;27;20070;-78
2021/05/10 10:04:13;;;;;;;1.77;1.10;;;25.20;95.90;;;24.99;39.84;100281.97;4893559;27;20066;-77
2021/05/10 10:06:44;;;;;;;4.28;1.60;;;25.30;95.70;;;24.86;38.83;100278.97;4890063;28;20047;-78
2021/05/10 10:09:14;;;;;;;3.53;1.30;;;25.20;95.40;;;24.88;38.36;100274.25;4900319;27;20418;-77
2021/05/10 10:11:40;;;;;;;4.63;1.25;;;;;;;25.09;39.26;100268.28;4891991;27;20096;-77
2021/05/10 10:14:10;;;;;;;4.13;1.10;;;25.40;96.50;;;25.22;40.70;100283.88;4874503;28;20048;-77
2021/05/10 10:16:38;;;;;;;2.70;1.48;;;25.80;94.80;;;25.83;38.77;100270.47;4880373;28;20040;-77